sensor_id;sensor_type;location;lat;lon;timestamp;temperature;humidity
65470;DHT22;52067;50.710;14.492;2024-03-06T00:01:50;2.25;85.92
65470;DHT22;52067;50.710;14.492;2024-03-06T00:04:16;2.04;87.43
65470;DHT22;52067;50.710;14.492;2024-03-06T00:06:41;2.32;87.27
65470;DHT22;52067;50.710;14.492;2024-03-06T00:09:06;2.53;86.55
65470;DHT22;52067;50.710;14.492;2024-03-06T00:11:34;2.53;86.23
65470;DHT22;52067;50.710;14.492;2024-03-06T00:14:02;2.66;86.62
65470;DHT22;52067;50.710;14.492;2024-03-06T00:16:27;2.76;86.86
65470;DHT22;52067;50.710;14.492;2024-03-06T00:18:53;2.74;86.83
65470;DHT22;52067;50.710;14.492;2024-03-06T00:21:18;2.84;85.77
65470;DHT22;52067;50.710;14.492;2024-03-06T00:23:44;2.91;85.51
65470;DHT22;52067;50.710;14.492;2024-03-06T00:26:11;2.90;85.68
65470;DHT22;52067;50.710;14.492;2024-03-06T00:28:38;3.04;86.69
65470;DHT22;52067;50.710;14.492;2024-03-06T00:31:05;3.17;85.88
65470;DHT22;52067;50.710;14.492;2024-03-06T00:33:30;3.32;86.00
65470;DHT22;52067;50.710;14.492;2024-03-06T00:35:56;3.40;85.15
65470;DHT22;52067;50.710;14.492;2024-03-06T00:38:21;3.36;85.37
65470;DHT22;52067;50.710;14.492;2024-03-06T00:40:47;3.46;85.04
65470;DHT22;52067;50.710;14.492;2024-03-06T00:43:12;3.52;84.73
65470;DHT22;52067;50.710;14.492;2024-03-06T00:45:38;3.12;85.80
65470;DHT22;52067;50.710;14.492;2024-03-06T00:48:03;3.32;84.93
65470;DHT22;52067;50.710;14.492;2024-03-06T00:50:29;3.39;84.39
65470;DHT22;52067;50.710;14.492;2024-03-06T00:52:54;3.38;84.21
65470;DHT22;52067;50.710;14.492;2024-03-06T00:55:19;3.42;84.33
65470;DHT22;52067;50.710;14.492;2024-03-06T00:57:45;3.00;85.43
65470;DHT22;52067;50.710;14.492;2024-03-06T01:00:11;2.66;87.34
65470;DHT22;52067;50.710;14.492;2024-03-06T01:02:37;2.73;87.42
65470;DHT22;52067;50.710;14.492;2024-03-06T01:05:03;2.81;87.25
65470;DHT22;52067;50.710;14.492;2024-03-06T01:07:35;3.05;86.40
65470;DHT22;52067;50.710;14.492;2024-03-06T01:10:03;2.98;86.42
65470;DHT22;52067;50.710;14.492;2024-03-06T01:12:28;2.93;86.63
65470;DHT22;52067;50.710;14.492;2024-03-06T01:14:54;2.80;85.92
65470;DHT22;52067;50.710;14.492;2024-03-06T01:17:19;2.74;86.08
65470;DHT22;52067;50.710;14.492;2024-03-06T01:19:44;2.88;86.16
65470;DHT22;52067;50.710;14.492;2024-03-06T01:22:10;2.72;86.54
65470;DHT22;52067;50.710;14.492;2024-03-06T01:24:36;2.88;86.23
65470;DHT22;52067;50.710;14.492;2024-03-06T01:27:01;2.58;87.23
65470;DHT22;52067;50.710;14.492;2024-03-06T01:29:29;2.26;87.97
65470;DHT22;52067;50.710;14.492;2024-03-06T01:31:55;2.21;88.51
65470;DHT22;52067;50.710;14.492;2024-03-06T01:34:20;2.22;88.49
65470;DHT22;52067;50.710;14.492;2024-03-06T01:36:46;2.43;87.90
65470;DHT22;52067;50.710;14.492;2024-03-06T01:39:11;2.24;88.53
65470;DHT22;52067;50.710;14.492;2024-03-06T01:41:37;2.36;87.88
65470;DHT22;52067;50.710;14.492;2024-03-06T01:44:02;2.26;87.89
65470;DHT22;52067;50.710;14.492;2024-03-06T01:46:29;2.22;87.31
65470;DHT22;52067;50.710;14.492;2024-03-06T01:48:55;2.01;88.13
65470;DHT22;52067;50.710;14.492;2024-03-06T01:51:20;2.18;87.65
65470;DHT22;52067;50.710;14.492;2024-03-06T01:53:46;2.21;87.15
65470;DHT22;52067;50.710;14.492;2024-03-06T01:56:12;2.21;87.20
65470;DHT22;52067;50.710;14.492;2024-03-06T01:58:42;2.24;87.19
65470;DHT22;52067;50.710;14.492;2024-03-06T02:01:13;2.21;86.93
65470;DHT22;52067;50.710;14.492;2024-03-06T02:03:39;2.05;86.81
65470;DHT22;52067;50.710;14.492;2024-03-06T02:06:06;1.98;86.75
65470;DHT22;52067;50.710;14.492;2024-03-06T02:08:32;2.04;86.90
65470;DHT22;52067;50.710;14.492;2024-03-06T02:10:58;1.98;86.84
65470;DHT22;52067;50.710;14.492;2024-03-06T02:13:25;1.80;86.69
65470;DHT22;52067;50.710;14.492;2024-03-06T02:15:51;1.68;86.87
65470;DHT22;52067;50.710;14.492;2024-03-06T02:18:16;1.67;87.50
65470;DHT22;52067;50.710;14.492;2024-03-06T02:20:41;1.71;87.24
65470;DHT22;52067;50.710;14.492;2024-03-06T02:23:07;1.70;87.31
65470;DHT22;52067;50.710;14.492;2024-03-06T02:25:32;1.64;87.10
65470;DHT22;52067;50.710;14.492;2024-03-06T02:27:58;1.57;87.14
65470;DHT22;52067;50.710;14.492;2024-03-06T02:30:24;1.43;87.47
65470;DHT22;52067;50.710;14.492;2024-03-06T02:32:49;1.42;87.39
65470;DHT22;52067;50.710;14.492;2024-03-06T02:35:15;1.23;87.41
65470;DHT22;52067;50.710;14.492;2024-03-06T02:37:42;1.16;87.73
65470;DHT22;52067;50.710;14.492;2024-03-06T02:40:07;1.10;87.67
65470;DHT22;52067;50.710;14.492;2024-03-06T02:42:35;1.00;87.72
65470;DHT22;52067;50.710;14.492;2024-03-06T02:45:04;0.91;87.89
65470;DHT22;52067;50.710;14.492;2024-03-06T02:47:30;1.03;87.98
65470;DHT22;52067;50.710;14.492;2024-03-06T02:49:55;1.02;87.88
65470;DHT22;52067;50.710;14.492;2024-03-06T02:52:21;1.05;87.77
65470;DHT22;52067;50.710;14.492;2024-03-06T02:54:46;1.08;87.60
65470;DHT22;52067;50.710;14.492;2024-03-06T02:57:11;0.82;88.07
65470;DHT22;52067;50.710;14.492;2024-03-06T02:59:39;0.93;87.97
65470;DHT22;52067;50.710;14.492;2024-03-06T03:02:05;1.02;87.82
65470;DHT22;52067;50.710;14.492;2024-03-06T03:04:30;0.85;87.78
65470;DHT22;52067;50.710;14.492;2024-03-06T03:06:56;0.74;88.76
65470;DHT22;52067;50.710;14.492;2024-03-06T03:09:22;0.81;88.44
65470;DHT22;52067;50.710;14.492;2024-03-06T03:11:48;0.46;88.66
65470;DHT22;52067;50.710;14.492;2024-03-06T03:14:14;0.30;89.77
65470;DHT22;52067;50.710;14.492;2024-03-06T03:16:39;0.16;90.06
65470;DHT22;52067;50.710;14.492;2024-03-06T03:19:04;0.46;89.88
65470;DHT22;52067;50.710;14.492;2024-03-06T03:21:30;0.58;89.27
65470;DHT22;52067;50.710;14.492;2024-03-06T03:23:55;0.70;88.76
65470;DHT22;52067;50.710;14.492;2024-03-06T03:26:21;0.29;89.28
65470;DHT22;52067;50.710;14.492;2024-03-06T03:28:46;0.40;89.51
65470;DHT22;52067;50.710;14.492;2024-03-06T03:31:11;0.60;88.87
65470;DHT22;52067;50.710;14.492;2024-03-06T03:33:40;0.43;88.45
65470;DHT22;52067;50.710;14.492;2024-03-06T03:36:07;0.49;88.46
65470;DHT22;52067;50.710;14.492;2024-03-06T03:38:33;0.49;88.67
65470;DHT22;52067;50.710;14.492;2024-03-06T03:41:01;0.43;88.52
65470;DHT22;52067;50.710;14.492;2024-03-06T03:43:29;0.57;88.60
65470;DHT22;52067;50.710;14.492;2024-03-06T03:45:54;0.72;88.36
65470;DHT22;52067;50.710;14.492;2024-03-06T03:48:20;0.68;88.21
65470;DHT22;52067;50.710;14.492;2024-03-06T03:50:45;0.44;88.76
65470;DHT22;52067;50.710;14.492;2024-03-06T03:53:11;0.57;88.90
65470;DHT22;52067;50.710;14.492;2024-03-06T03:55:36;0.79;88.33
65470;DHT22;52067;50.710;14.492;2024-03-06T03:58:01;0.93;87.72
65470;DHT22;52067;50.710;14.492;2024-03-06T04:00:27;1.08;87.28
65470;DHT22;52067;50.710;14.492;2024-03-06T04:02:52;1.18;87.08
65470;DHT22;52067;50.710;14.492;2024-03-06T04:05:17;1.25;87.38
65470;DHT22;52067;50.710;14.492;2024-03-06T04:07:43;1.39;86.78
65470;DHT22;52067;50.710;14.492;2024-03-06T04:10:10;1.54;86.63
65470;DHT22;52067;50.710;14.492;2024-03-06T04:12:36;1.66;86.62
65470;DHT22;52067;50.710;14.492;2024-03-06T04:15:03;1.73;86.59
65470;DHT22;52067;50.710;14.492;2024-03-06T04:17:29;1.53;86.30
65470;DHT22;52067;50.710;14.492;2024-03-06T04:19:54;1.50;86.84
65470;DHT22;52067;50.710;14.492;2024-03-06T04:22:21;1.59;86.49
65470;DHT22;52067;50.710;14.492;2024-03-06T04:24:46;1.61;86.21
65470;DHT22;52067;50.710;14.492;2024-03-06T04:27:12;1.23;87.59
65470;DHT22;52067;50.710;14.492;2024-03-06T04:29:37;1.23;88.48
65470;DHT22;52067;50.710;14.492;2024-03-06T04:32:03;1.46;87.73
65470;DHT22;52067;50.710;14.492;2024-03-06T04:34:29;1.57;87.18
65470;DHT22;52067;50.710;14.492;2024-03-06T04:36:54;1.66;87.06
65470;DHT22;52067;50.710;14.492;2024-03-06T04:39:20;1.77;86.85
65470;DHT22;52067;50.710;14.492;2024-03-06T04:41:45;1.91;86.49
65470;DHT22;52067;50.710;14.492;2024-03-06T04:44:10;1.80;86.05
65470;DHT22;52067;50.710;14.492;2024-03-06T04:46:36;1.47;87.56
65470;DHT22;52067;50.710;14.492;2024-03-06T04:49:02;1.40;88.42
65470;DHT22;52067;50.710;14.492;2024-03-06T04:51:27;1.39;88.44
65470;DHT22;52067;50.710;14.492;2024-03-06T04:53:53;1.60;88.09
65470;DHT22;52067;50.710;14.492;2024-03-06T04:56:18;1.84;87.60
65470;DHT22;52067;50.710;14.492;2024-03-06T04:58:46;1.95;86.98
65470;DHT22;52067;50.710;14.492;2024-03-06T05:01:12;1.95;86.55
65470;DHT22;52067;50.710;14.492;2024-03-06T05:03:37;2.11;86.32
65470;DHT22;52067;50.710;14.492;2024-03-06T05:06:04;1.98;86.70
65470;DHT22;52067;50.710;14.492;2024-03-06T05:08:30;1.99;86.36
65470;DHT22;52067;50.710;14.492;2024-03-06T05:10:56;1.93;86.93
65470;DHT22;52067;50.710;14.492;2024-03-06T05:13:21;1.94;86.52
65470;DHT22;52067;50.710;14.492;2024-03-06T05:15:47;1.95;86.30
65470;DHT22;52067;50.710;14.492;2024-03-06T05:18:12;1.88;86.25
65470;DHT22;52067;50.710;14.492;2024-03-06T05:20:38;1.84;86.27
65470;DHT22;52067;50.710;14.492;2024-03-06T05:23:03;1.59;86.65
65470;DHT22;52067;50.710;14.492;2024-03-06T05:25:29;1.49;87.03
65470;DHT22;52067;50.710;14.492;2024-03-06T05:27:54;1.25;87.70
65470;DHT22;52067;50.710;14.492;2024-03-06T05:30:19;1.16;87.87
65470;DHT22;52067;50.710;14.492;2024-03-06T05:32:45;1.20;87.97
65470;DHT22;52067;50.710;14.492;2024-03-06T05:35:12;1.29;87.62
65470;DHT22;52067;50.710;14.492;2024-03-06T05:37:37;1.15;87.55
65470;DHT22;52067;50.710;14.492;2024-03-06T05:40:03;1.20;87.68
65470;DHT22;52067;50.710;14.492;2024-03-06T05:42:31;1.12;87.65
65470;DHT22;52067;50.710;14.492;2024-03-06T05:44:57;0.93;88.39
65470;DHT22;52067;50.710;14.492;2024-03-06T05:47:26;1.00;88.29
65470;DHT22;52067;50.710;14.492;2024-03-06T05:49:52;1.06;88.06
65470;DHT22;52067;50.710;14.492;2024-03-06T05:52:17;1.18;87.80
65470;DHT22;52067;50.710;14.492;2024-03-06T05:54:43;1.02;87.87
65470;DHT22;52067;50.710;14.492;2024-03-06T05:57:08;1.02;88.23
65470;DHT22;52067;50.710;14.492;2024-03-06T05:59:33;1.13;88.09
65470;DHT22;52067;50.710;14.492;2024-03-06T06:01:59;1.19;87.81
65470;DHT22;52067;50.710;14.492;2024-03-06T06:04:24;1.20;87.72
65470;DHT22;52067;50.710;14.492;2024-03-06T06:06:50;1.35;87.71
65470;DHT22;52067;50.710;14.492;2024-03-06T06:09:16;1.39;87.58
65470;DHT22;52067;50.710;14.492;2024-03-06T06:11:43;1.29;88.54
65470;DHT22;52067;50.710;14.492;2024-03-06T06:14:08;1.32;87.91
65470;DHT22;52067;50.710;14.492;2024-03-06T06:16:38;1.64;87.76
65470;DHT22;52067;50.710;14.492;2024-03-06T06:19:04;1.46;88.05
65470;DHT22;52067;50.710;14.492;2024-03-06T06:21:30;1.70;87.87
65470;DHT22;52067;50.710;14.492;2024-03-06T06:23:56;1.61;87.68
65470;DHT22;52067;50.710;14.492;2024-03-06T06:26:21;1.89;87.89
65470;DHT22;52067;50.710;14.492;2024-03-06T06:28:46;1.99;87.16
65470;DHT22;52067;50.710;14.492;2024-03-06T06:31:12;1.66;87.89
65470;DHT22;52067;50.710;14.492;2024-03-06T06:33:37;1.71;88.66
65470;DHT22;52067;50.710;14.492;2024-03-06T06:36:03;2.05;88.35
65470;DHT22;52067;50.710;14.492;2024-03-06T06:38:28;2.30;87.48
65470;DHT22;52067;50.710;14.492;2024-03-06T06:40:55;2.53;86.73
65470;DHT22;52067;50.710;14.492;2024-03-06T06:43:20;2.01;87.43
65470;DHT22;52067;50.710;14.492;2024-03-06T06:45:46;2.01;88.15
65470;DHT22;52067;50.710;14.492;2024-03-06T06:48:11;2.53;87.36
65470;DHT22;52067;50.710;14.492;2024-03-06T06:50:37;2.83;86.65
65470;DHT22;52067;50.710;14.492;2024-03-06T06:53:02;2.95;86.41
65470;DHT22;52067;50.710;14.492;2024-03-06T06:55:28;2.86;86.98
65470;DHT22;52067;50.710;14.492;2024-03-06T06:57:53;3.05;86.68
65470;DHT22;52067;50.710;14.492;2024-03-06T07:00:19;3.31;86.14
65470;DHT22;52067;50.710;14.492;2024-03-06T07:02:47;3.52;86.35
65470;DHT22;52067;50.710;14.492;2024-03-06T07:05:12;3.79;85.81
65470;DHT22;52067;50.710;14.492;2024-03-06T07:07:38;3.82;85.66
65470;DHT22;52067;50.710;14.492;2024-03-06T07:10:04;3.97;86.00
65470;DHT22;52067;50.710;14.492;2024-03-06T07:12:31;4.11;85.92
65470;DHT22;52067;50.710;14.492;2024-03-06T07:14:57;4.07;86.14
65470;DHT22;52067;50.710;14.492;2024-03-06T07:17:22;4.13;85.82
65470;DHT22;52067;50.710;14.492;2024-03-06T07:19:48;4.34;85.55
65470;DHT22;52067;50.710;14.492;2024-03-06T07:22:14;4.53;85.63
65470;DHT22;52067;50.710;14.492;2024-03-06T07:24:40;4.86;85.47
65470;DHT22;52067;50.710;14.492;2024-03-06T07:27:06;4.86;84.25
65470;DHT22;52067;50.710;14.492;2024-03-06T07:29:34;5.17;83.34
65470;DHT22;52067;50.710;14.492;2024-03-06T07:32:00;5.42;82.36
65470;DHT22;52067;50.710;14.492;2024-03-06T07:34:25;5.52;81.15
65470;DHT22;52067;50.710;14.492;2024-03-06T07:36:51;5.65;81.38
65470;DHT22;52067;50.710;14.492;2024-03-06T07:39:16;5.34;82.26
65470;DHT22;52067;50.710;14.492;2024-03-06T07:41:42;5.40;81.88
65470;DHT22;52067;50.710;14.492;2024-03-06T07:44:08;5.28;81.15
65470;DHT22;52067;50.710;14.492;2024-03-06T07:46:36;5.34;81.71
65470;DHT22;52067;50.710;14.492;2024-03-06T07:49:02;5.34;80.91
65470;DHT22;52067;50.710;14.492;2024-03-06T07:51:29;5.32;81.38
65470;DHT22;52067;50.710;14.492;2024-03-06T07:53:55;5.44;81.90
65470;DHT22;52067;50.710;14.492;2024-03-06T07:56:20;5.41;82.36
65470;DHT22;52067;50.710;14.492;2024-03-06T07:58:46;5.30;82.03
65470;DHT22;52067;50.710;14.492;2024-03-06T08:01:11;5.27;82.08
65470;DHT22;52067;50.710;14.492;2024-03-06T08:03:39;5.32;82.71
65470;DHT22;52067;50.710;14.492;2024-03-06T08:06:05;5.45;81.74
65470;DHT22;52067;50.710;14.492;2024-03-06T08:08:31;5.62;82.18
65470;DHT22;52067;50.710;14.492;2024-03-06T08:10:56;5.76;81.28
65470;DHT22;52067;50.710;14.492;2024-03-06T08:13:21;5.72;81.25
65470;DHT22;52067;50.710;14.492;2024-03-06T08:15:47;5.76;81.70
65470;DHT22;52067;50.710;14.492;2024-03-06T08:18:12;5.90;80.92
65470;DHT22;52067;50.710;14.492;2024-03-06T08:20:39;6.16;80.78
65470;DHT22;52067;50.710;14.492;2024-03-06T08:23:04;6.21;79.46
65470;DHT22;52067;50.710;14.492;2024-03-06T08:25:29;6.23;79.34
65470;DHT22;52067;50.710;14.492;2024-03-06T08:27:58;6.30;79.69
65470;DHT22;52067;50.710;14.492;2024-03-06T08:30:24;6.34;80.63
65470;DHT22;52067;50.710;14.492;2024-03-06T08:32:50;6.40;79.23
65470;DHT22;52067;50.710;14.492;2024-03-06T08:35:16;6.57;79.21
65470;DHT22;52067;50.710;14.492;2024-03-06T08:37:43;6.60;79.56
65470;DHT22;52067;50.710;14.492;2024-03-06T08:40:09;6.75;77.48
65470;DHT22;52067;50.710;14.492;2024-03-06T08:42:48;6.81;78.38
65470;DHT22;52067;50.710;14.492;2024-03-06T08:45:14;7.02;79.26
65470;DHT22;52067;50.710;14.492;2024-03-06T08:47:40;7.18;78.19
65470;DHT22;52067;50.710;14.492;2024-03-06T08:50:06;7.24;77.63
65470;DHT22;52067;50.710;14.492;2024-03-06T08:52:33;7.40;77.11
65470;DHT22;52067;50.710;14.492;2024-03-06T08:54:58;7.47;76.06
65470;DHT22;52067;50.710;14.492;2024-03-06T08:57:23;7.46;76.67
65470;DHT22;52067;50.710;14.492;2024-03-06T08:59:51;7.50;76.34
65470;DHT22;52067;50.710;14.492;2024-03-06T09:02:18;7.75;74.30
65470;DHT22;52067;50.710;14.492;2024-03-06T09:04:45;7.81;75.17
65470;DHT22;52067;50.710;14.492;2024-03-06T09:07:11;8.09;74.47
65470;DHT22;52067;50.710;14.492;2024-03-06T09:09:37;8.09;75.58
65470;DHT22;52067;50.710;14.492;2024-03-06T09:12:04;7.91;75.83
65470;DHT22;52067;50.710;14.492;2024-03-06T09:14:34;8.03;73.70
65470;DHT22;52067;50.710;14.492;2024-03-06T09:17:00;8.36;70.62
65470;DHT22;52067;50.710;14.492;2024-03-06T09:19:25;8.54;69.87
65470;DHT22;52067;50.710;14.492;2024-03-06T09:21:51;8.64;72.33
65470;DHT22;52067;50.710;14.492;2024-03-06T09:24:16;8.80;71.07
65470;DHT22;52067;50.710;14.492;2024-03-06T09:26:43;8.83;69.48
65470;DHT22;52067;50.710;14.492;2024-03-06T09:29:09;8.80;71.18
65470;DHT22;52067;50.710;14.492;2024-03-06T09:31:35;8.30;73.53
65470;DHT22;52067;50.710;14.492;2024-03-06T09:34:02;8.26;71.79
65470;DHT22;52067;50.710;14.492;2024-03-06T09:36:27;8.22;72.78
65470;DHT22;52067;50.710;14.492;2024-03-06T09:38:52;9.00;71.90
65470;DHT22;52067;50.710;14.492;2024-03-06T09:41:18;9.57;69.32
65470;DHT22;52067;50.710;14.492;2024-03-06T09:43:44;10.49;67.21
65470;DHT22;52067;50.710;14.492;2024-03-06T09:46:10;10.93;64.33
65470;DHT22;52067;50.710;14.492;2024-03-06T09:48:36;10.97;64.22
65470;DHT22;52067;50.710;14.492;2024-03-06T09:51:04;12.41;59.48
65470;DHT22;52067;50.710;14.492;2024-03-06T09:53:30;14.15;55.41
65470;DHT22;52067;50.710;14.492;2024-03-06T09:55:56;13.26;54.80
65470;DHT22;52067;50.710;14.492;2024-03-06T09:58:23;15.06;52.42
65470;DHT22;52067;50.710;14.492;2024-03-06T10:00:50;14.38;52.10
65470;DHT22;52067;50.710;14.492;2024-03-06T10:03:16;13.15;52.95
65470;DHT22;52067;50.710;14.492;2024-03-06T10:05:42;12.17;57.76
65470;DHT22;52067;50.710;14.492;2024-03-06T10:08:08;11.82;58.75
65470;DHT22;52067;50.710;14.492;2024-03-06T10:10:35;11.00;60.98
65470;DHT22;52067;50.710;14.492;2024-03-06T10:13:00;10.61;63.23
65470;DHT22;52067;50.710;14.492;2024-03-06T10:15:26;10.58;61.60
65470;DHT22;52067;50.710;14.492;2024-03-06T10:18:13;9.67;63.05
65470;DHT22;52067;50.710;14.492;2024-03-06T10:20:39;9.18;65.86
65470;DHT22;52067;50.710;14.492;2024-03-06T10:23:07;8.78;67.28
65470;DHT22;52067;50.710;14.492;2024-03-06T10:25:34;8.59;68.66
65470;DHT22;52067;50.710;14.492;2024-03-06T10:30:35;8.33;68.74
65470;DHT22;52067;50.710;14.492;2024-03-06T10:33:05;8.32;69.50
65470;DHT22;52067;50.710;14.492;2024-03-06T10:35:37;8.73;68.70
65470;DHT22;52067;50.710;14.492;2024-03-06T10:38:06;8.67;68.59
65470;DHT22;52067;50.710;14.492;2024-03-06T10:40:33;9.35;64.17
65470;DHT22;52067;50.710;14.492;2024-03-06T10:43:00;9.90;61.44
65470;DHT22;52067;50.710;14.492;2024-03-06T10:48:11;11.79;57.67
65470;DHT22;52067;50.710;14.492;2024-03-06T10:50:42;11.79;56.95
65470;DHT22;52067;50.710;14.492;2024-03-06T10:53:12;13.16;52.77
65470;DHT22;52067;50.710;14.492;2024-03-06T10:55:38;13.43;53.79
65470;DHT22;52067;50.710;14.492;2024-03-06T10:58:07;13.94;53.21
65470;DHT22;52067;50.710;14.492;2024-03-06T11:00:40;14.21;52.79
65470;DHT22;52067;50.710;14.492;2024-03-06T11:03:10;15.82;49.69
65470;DHT22;52067;50.710;14.492;2024-03-06T11:05:43;12.83;54.83
65470;DHT22;52067;50.710;14.492;2024-03-06T11:08:13;11.55;57.35
65470;DHT22;52067;50.710;14.492;2024-03-06T11:10:41;13.77;51.79
65470;DHT22;52067;50.710;14.492;2024-03-06T11:13:25;14.28;51.12
65470;DHT22;52067;50.710;14.492;2024-03-06T11:15:58;14.33;50.37
65470;DHT22;52067;50.710;14.492;2024-03-06T11:23:28;14.18;52.16
65470;DHT22;52067;50.710;14.492;2024-03-06T11:28:22;13.53;52.27
65470;DHT22;52067;50.710;14.492;2024-03-06T11:33:26;13.27;51.97
65470;DHT22;52067;50.710;14.492;2024-03-06T11:39:07;12.34;55.34
65470;DHT22;52067;50.710;14.492;2024-03-06T11:44:01;12.02;53.01
65470;DHT22;52067;50.710;14.492;2024-03-06T11:47:02;13.11;50.57
65470;DHT22;52067;50.710;14.492;2024-03-06T11:49:29;11.99;50.86
65470;DHT22;52067;50.710;14.492;2024-03-06T11:52:01;11.00;54.66
65470;DHT22;52067;50.710;14.492;2024-03-06T11:54:27;11.52;52.93
65470;DHT22;52067;50.710;14.492;2024-03-06T11:56:55;11.79;52.02
65470;DHT22;52067;50.710;14.492;2024-03-06T11:59:25;12.58;51.70
65470;DHT22;52067;50.710;14.492;2024-03-06T12:01:55;11.14;52.89
65470;DHT22;52067;50.710;14.492;2024-03-06T12:04:21;11.34;54.08
65470;DHT22;52067;50.710;14.492;2024-03-06T12:06:47;11.16;54.70
65470;DHT22;52067;50.710;14.492;2024-03-06T12:09:13;10.21;54.16
65470;DHT22;52067;50.710;14.492;2024-03-06T12:11:39;10.95;56.05
65470;DHT22;52067;50.710;14.492;2024-03-06T12:14:04;11.52;51.90
65470;DHT22;52067;50.710;14.492;2024-03-06T12:16:30;10.93;53.58
65470;DHT22;52067;50.710;14.492;2024-03-06T12:18:59;12.68;51.39
65470;DHT22;52067;50.710;14.492;2024-03-06T12:21:28;11.16;53.56
65470;DHT22;52067;50.710;14.492;2024-03-06T12:24:09;11.48;52.53
65470;DHT22;52067;50.710;14.492;2024-03-06T12:26:37;11.21;52.72
65470;DHT22;52067;50.710;14.492;2024-03-06T12:29:10;10.51;54.09
65470;DHT22;52067;50.710;14.492;2024-03-06T12:31:37;11.16;53.43
65470;DHT22;52067;50.710;14.492;2024-03-06T12:34:05;12.41;52.04
65470;DHT22;52067;50.710;14.492;2024-03-06T12:36:34;13.38;47.08
65470;DHT22;52067;50.710;14.492;2024-03-06T12:39:02;13.06;50.61
65470;DHT22;52067;50.710;14.492;2024-03-06T12:41:28;12.17;53.02
65470;DHT22;52067;50.710;14.492;2024-03-06T12:43:55;11.99;51.04
65470;DHT22;52067;50.710;14.492;2024-03-06T12:46:22;13.23;50.28
65470;DHT22;52067;50.710;14.492;2024-03-06T12:48:47;13.84;47.77
65470;DHT22;52067;50.710;14.492;2024-03-06T12:51:13;12.00;52.66
65470;DHT22;52067;50.710;14.492;2024-03-06T12:53:38;14.01;46.20
65470;DHT22;52067;50.710;14.492;2024-03-06T12:56:05;12.58;49.40
65470;DHT22;52067;50.710;14.492;2024-03-06T12:58:31;12.29;51.70
65470;DHT22;52067;50.710;14.492;2024-03-06T13:00:57;10.71;52.74
65470;DHT22;52067;50.710;14.492;2024-03-06T13:03:23;10.83;53.97
65470;DHT22;52067;50.710;14.492;2024-03-06T13:05:48;11.35;54.03
65470;DHT22;52067;50.710;14.492;2024-03-06T13:08:14;11.54;53.99
65470;DHT22;52067;50.710;14.492;2024-03-06T13:10:42;11.14;53.56
65470;DHT22;52067;50.710;14.492;2024-03-06T13:13:08;11.58;52.20
65470;DHT22;52067;50.710;14.492;2024-03-06T13:15:33;10.12;57.07
65470;DHT22;52067;50.710;14.492;2024-03-06T13:18:00;10.82;55.96
65470;DHT22;52067;50.710;14.492;2024-03-06T13:20:29;10.53;56.16
65470;DHT22;52067;50.710;14.492;2024-03-06T13:22:54;11.59;53.13
65470;DHT22;52067;50.710;14.492;2024-03-06T13:25:20;10.73;53.34
65470;DHT22;52067;50.710;14.492;2024-03-06T13:27:45;11.67;52.85
65470;DHT22;52067;50.710;14.492;2024-03-06T13:30:11;11.17;54.22
65470;DHT22;52067;50.710;14.492;2024-03-06T13:32:37;11.31;53.71
65470;DHT22;52067;50.710;14.492;2024-03-06T13:35:03;12.44;48.60
65470;DHT22;52067;50.710;14.492;2024-03-06T13:37:28;10.15;54.62
65470;DHT22;52067;50.710;14.492;2024-03-06T13:39:54;11.52;52.34
65470;DHT22;52067;50.710;14.492;2024-03-06T13:42:23;10.97;53.55
65470;DHT22;52067;50.710;14.492;2024-03-06T13:44:48;10.20;56.93
65470;DHT22;52067;50.710;14.492;2024-03-06T13:47:15;10.68;54.52
65470;DHT22;52067;50.710;14.492;2024-03-06T13:49:41;10.73;54.57
65470;DHT22;52067;50.710;14.492;2024-03-06T13:52:08;9.36;57.33
65470;DHT22;52067;50.710;14.492;2024-03-06T13:54:42;11.51;52.32
65470;DHT22;52067;50.710;14.492;2024-03-06T13:57:08;9.67;55.78
65470;DHT22;52067;50.710;14.492;2024-03-06T13:59:34;9.26;58.42
65470;DHT22;52067;50.710;14.492;2024-03-06T14:02:01;9.89;56.20
65470;DHT22;52067;50.710;14.492;2024-03-06T14:04:26;9.76;56.63
65470;DHT22;52067;50.710;14.492;2024-03-06T14:06:52;9.32;58.92
65470;DHT22;52067;50.710;14.492;2024-03-06T14:09:18;10.90;55.00
65470;DHT22;52067;50.710;14.492;2024-03-06T14:11:44;10.12;57.15
65470;DHT22;52067;50.710;14.492;2024-03-06T14:14:09;9.91;55.97
65470;DHT22;52067;50.710;14.492;2024-03-06T14:16:36;9.83;57.22
65470;DHT22;52067;50.710;14.492;2024-03-06T14:19:02;8.39;60.88
65470;DHT22;52067;50.710;14.492;2024-03-06T14:21:29;9.46;60.74
65470;DHT22;52067;50.710;14.492;2024-03-06T14:23:55;8.73;60.35
65470;DHT22;52067;50.710;14.492;2024-03-06T14:26:20;9.45;59.04
65470;DHT22;52067;50.710;14.492;2024-03-06T14:28:45;8.39;61.81
65470;DHT22;52067;50.710;14.492;2024-03-06T14:31:11;8.06;60.78
65470;DHT22;52067;50.710;14.492;2024-03-06T14:33:40;9.87;58.26
65470;DHT22;52067;50.710;14.492;2024-03-06T14:36:05;10.32;56.64
65470;DHT22;52067;50.710;14.492;2024-03-06T14:38:31;8.16;60.02
65470;DHT22;52067;50.710;14.492;2024-03-06T14:40:58;8.95;58.83
65470;DHT22;52067;50.710;14.492;2024-03-06T14:43:23;8.05;60.88
65470;DHT22;52067;50.710;14.492;2024-03-06T14:45:49;8.29;59.81
65470;DHT22;52067;50.710;14.492;2024-03-06T14:48:14;9.11;57.73
65470;DHT22;52067;50.710;14.492;2024-03-06T14:50:40;8.28;60.95
65470;DHT22;52067;50.710;14.492;2024-03-06T14:53:05;8.66;58.84
65470;DHT22;52067;50.710;14.492;2024-03-06T14:55:31;9.35;56.27
65470;DHT22;52067;50.710;14.492;2024-03-06T14:57:56;8.63;59.68
65470;DHT22;52067;50.710;14.492;2024-03-06T15:00:21;7.36;62.33
65470;DHT22;52067;50.710;14.492;2024-03-06T15:02:48;7.94;60.96
65470;DHT22;52067;50.710;14.492;2024-03-06T15:05:13;8.02;61.44
65470;DHT22;52067;50.710;14.492;2024-03-06T15:07:39;7.75;61.61
65470;DHT22;52067;50.710;14.492;2024-03-06T15:10:08;7.71;62.57
65470;DHT22;52067;50.710;14.492;2024-03-06T15:12:36;7.48;61.42
65470;DHT22;52067;50.710;14.492;2024-03-06T15:15:03;7.23;62.10
65470;DHT22;52067;50.710;14.492;2024-03-06T15:17:32;6.60;63.24
65470;DHT22;52067;50.710;14.492;2024-03-06T15:19:58;7.20;61.92
65470;DHT22;52067;50.710;14.492;2024-03-06T15:22:23;6.75;63.62
65470;DHT22;52067;50.710;14.492;2024-03-06T15:24:49;7.29;61.24
65470;DHT22;52067;50.710;14.492;2024-03-06T15:27:16;7.12;63.44
65470;DHT22;52067;50.710;14.492;2024-03-06T15:29:41;6.58;63.58
65470;DHT22;52067;50.710;14.492;2024-03-06T15:32:07;6.51;64.04
65470;DHT22;52067;50.710;14.492;2024-03-06T15:34:32;6.77;64.73
65470;DHT22;52067;50.710;14.492;2024-03-06T15:36:57;6.88;63.96
65470;DHT22;52067;50.710;14.492;2024-03-06T15:39:23;6.98;62.33
65470;DHT22;52067;50.710;14.492;2024-03-06T15:41:48;6.37;64.60
65470;DHT22;52067;50.710;14.492;2024-03-06T15:44:14;6.55;64.11